createdAt,value
2023-04-20T00:00:15.833Z,17.69
2023-04-20T00:03:21.466Z,17.69
2023-04-20T00:06:25.477Z,17.63
2023-04-20T00:09:28.356Z,17.63
2023-04-20T00:12:30.701Z,17.63
2023-04-20T00:15:34.170Z,17.63
2023-04-20T00:18:36.229Z,17.63
2023-04-20T00:21:38.260Z,17.63
2023-04-20T00:24:40.344Z,17.63
2023-04-20T00:27:42.419Z,17.56
2023-04-20T00:30:44.445Z,17.56
2023-04-20T00:33:47.620Z,17.56
2023-04-20T00:36:49.709Z,17.56
2023-04-20T00:39:52.385Z,17.56
2023-04-20T00:42:54.593Z,17.50
2023-04-20T00:45:56.785Z,17.50
2023-04-20T00:48:59.853Z,17.50
2023-04-20T00:52:01.979Z,17.50
2023-04-20T00:55:05.491Z,17.50
2023-04-20T00:58:07.556Z,17.50
2023-04-20T01:01:11.199Z,17.44
2023-04-20T01:04:13.522Z,17.44
2023-04-20T01:07:15.863Z,17.44
2023-04-20T01:10:18.236Z,17.44
2023-04-20T01:13:20.445Z,17.38
2023-04-20T01:16:23.265Z,17.44
2023-04-20T01:19:25.471Z,17.44
2023-04-20T01:22:27.705Z,17.38
2023-04-20T01:25:30.126Z,17.38
2023-04-20T01:28:32.177Z,17.38
2023-04-20T01:31:34.276Z,17.38
2023-04-20T01:34:36.896Z,17.31
2023-04-20T01:37:40.312Z,17.31
2023-04-20T01:40:42.361Z,17.31
2023-04-20T01:43:44.781Z,17.31
2023-04-20T01:46:46.863Z,17.31
2023-04-20T01:49:49.008Z,17.31
2023-04-20T01:52:51.055Z,17.31
2023-04-20T01:55:53.114Z,17.25
2023-04-20T01:58:55.354Z,17.25
2023-04-20T02:01:57.404Z,17.25
2023-04-20T02:04:59.501Z,17.25
2023-04-20T02:08:01.565Z,17.19
2023-04-20T02:11:03.884Z,17.19
2023-04-20T02:14:05.968Z,17.19
2023-04-20T02:17:08.470Z,17.25
2023-04-20T02:20:11.125Z,17.19
2023-04-20T02:23:13.221Z,17.19
2023-04-20T02:26:16.744Z,17.19
2023-04-20T02:29:19.050Z,17.13
2023-04-20T02:32:21.348Z,17.13
2023-04-20T02:35:23.493Z,17.13
2023-04-20T02:38:25.614Z,17.19
2023-04-20T02:41:27.683Z,17.13
2023-04-20T02:44:29.714Z,17.13
2023-04-20T02:47:32.025Z,17.13
2023-04-20T02:50:35.053Z,17.06
2023-04-20T02:53:37.140Z,17.06
2023-04-20T02:56:39.209Z,17.06
2023-04-20T02:59:41.275Z,17.06
2023-04-20T03:02:43.435Z,17.06
2023-04-20T03:05:45.544Z,17.06
2023-04-20T03:08:47.688Z,17.00
2023-04-20T03:11:50.212Z,17.00
2023-04-20T03:14:52.272Z,17.00
2023-04-20T03:17:54.362Z,17.00
2023-04-20T03:20:56.702Z,17.00
2023-04-20T03:23:59.260Z,17.00
2023-04-20T03:27:01.582Z,17.00
2023-04-20T03:30:03.910Z,16.94
2023-04-20T03:33:06.153Z,17.00
2023-04-20T03:36:09.311Z,17.25
2023-04-20T03:39:11.430Z,17.38
2023-04-20T03:42:13.440Z,17.44
2023-04-20T03:45:16.401Z,17.50
2023-04-20T03:48:18.500Z,17.63
2023-04-20T03:51:20.541Z,17.75
2023-04-20T03:54:22.548Z,17.75
2023-04-20T03:57:24.885Z,17.81
2023-04-20T04:00:26.970Z,17.94
2023-04-20T04:03:29.204Z,18.06
2023-04-20T04:06:32.120Z,18.19
2023-04-20T04:09:34.156Z,18.19
2023-04-20T04:12:36.227Z,18.19
2023-04-20T04:15:38.273Z,18.25
2023-04-20T04:18:47.455Z,18.50
2023-04-20T04:21:49.501Z,18.63
2023-04-20T04:24:51.619Z,18.69
2023-04-20T04:27:54.461Z,18.69
2023-04-20T04:30:56.494Z,18.63
2023-04-20T04:33:58.484Z,18.56
2023-04-20T04:37:01.685Z,18.56
2023-04-20T04:40:06.400Z,18.56
2023-04-20T04:43:12.410Z,18.50
2023-04-20T04:46:14.522Z,18.56
2023-04-20T04:49:17.096Z,18.56
2023-04-20T04:52:19.446Z,18.56
2023-04-20T04:55:21.487Z,18.50
2023-04-20T04:58:23.571Z,18.56
2023-04-20T05:01:25.989Z,18.56
2023-04-20T05:04:28.142Z,18.50
2023-04-20T05:07:30.464Z,18.56
2023-04-20T05:10:32.545Z,18.69
2023-04-20T05:13:34.631Z,18.75
2023-04-20T05:16:36.840Z,18.81
2023-04-20T05:19:39.898Z,18.88
2023-04-20T05:22:42.096Z,18.88
2023-04-20T05:25:44.214Z,18.81
2023-04-20T05:28:46.233Z,18.88
2023-04-20T05:31:48.245Z,19.00
2023-04-20T05:34:50.456Z,19.00
2023-04-20T05:37:52.482Z,19.06
2023-04-20T05:40:54.508Z,19.06
2023-04-20T05:43:56.916Z,19.19
2023-04-20T05:46:58.933Z,19.25
2023-04-20T05:50:01.103Z,19.19
2023-04-20T05:53:03.186Z,19.31
2023-04-20T05:56:06.203Z,19.50
2023-04-20T05:59:08.798Z,19.75
2023-04-20T06:02:10.972Z,19.88
2023-04-20T06:05:13.508Z,20.00
2023-04-20T06:08:15.550Z,20.00
2023-04-20T06:11:17.816Z,20.00
2023-04-20T06:14:19.842Z,20.06
2023-04-20T06:17:22.160Z,20.00
2023-04-20T06:20:24.327Z,20.00
2023-04-20T06:23:27.258Z,20.00
2023-04-20T06:26:29.283Z,20.25
2023-04-20T06:29:31.995Z,20.44
2023-04-20T06:32:34.278Z,20.56
2023-04-20T06:35:36.259Z,20.50
2023-04-20T06:38:38.653Z,20.50
2023-04-20T06:41:40.686Z,20.63
2023-04-20T06:44:42.781Z,20.63
2023-04-20T06:47:44.994Z,20.63
2023-04-20T06:50:50.990Z,20.63
2023-04-20T06:53:53.077Z,20.69
2023-04-20T06:56:55.355Z,20.75
2023-04-20T06:59:58.980Z,20.75
2023-04-20T07:03:02.859Z,20.75
2023-04-20T07:06:06.999Z,20.81
2023-04-20T07:09:09.330Z,20.94
2023-04-20T07:12:15.680Z,21.00
2023-04-20T07:15:17.789Z,21.06
2023-04-20T07:18:19.867Z,21.19
2023-04-20T07:21:21.926Z,21.19
2023-04-20T07:24:24.000Z,21.19
2023-04-20T07:27:27.851Z,21.19
2023-04-20T07:30:31.315Z,21.25
2023-04-20T07:33:35.628Z,21.25
2023-04-20T07:36:39.022Z,21.31
2023-04-20T07:39:41.145Z,21.13
2023-04-20T07:42:43.259Z,21.19
2023-04-20T07:45:45.451Z,21.19
2023-04-20T07:48:47.744Z,21.19
2023-04-20T07:51:49.828Z,21.25
2023-04-20T07:54:53.747Z,21.06
2023-04-20T07:57:56.041Z,21.13
2023-04-20T08:00:58.114Z,20.94
2023-04-20T08:04:00.439Z,20.94
2023-04-20T08:07:02.610Z,20.75
2023-04-20T08:10:06.298Z,20.63
2023-04-20T08:13:08.484Z,20.56
2023-04-20T08:16:10.715Z,20.38
2023-04-20T08:22:20.386Z,20.19
2023-04-20T08:25:24.223Z,20.13
2023-04-20T08:28:33.368Z,20.25
2023-04-20T08:31:36.974Z,20.38
2023-04-20T08:34:39.640Z,20.50
2023-04-20T08:37:42.868Z,20.25
2023-04-20T08:40:44.935Z,20.13
2023-04-20T08:43:48.559Z,20.25
2023-04-20T08:46:51.212Z,20.19
2023-04-20T08:49:54.802Z,20.06
2023-04-20T08:52:57.384Z,20.31
2023-04-20T08:55:59.743Z,20.00
2023-04-20T08:59:03.896Z,19.94
2023-04-20T09:02:13.189Z,19.81
2023-04-20T09:05:15.563Z,19.81
2023-04-20T09:08:17.616Z,19.81
2023-04-20T09:11:27.189Z,19.94
2023-04-20T09:14:29.621Z,19.94
2023-04-20T09:17:33.791Z,19.81
2023-04-20T09:20:36.100Z,19.75
2023-04-20T09:23:38.259Z,19.69
2023-04-20T09:26:40.751Z,19.56
2023-04-20T09:29:42.864Z,19.56
2023-04-20T09:32:46.931Z,19.50
2023-04-20T09:35:49.128Z,19.38
2023-04-20T09:39:03.785Z,19.31
2023-04-20T09:42:06.884Z,19.19
2023-04-20T09:45:09.672Z,19.19
2023-04-20T09:48:15.366Z,19.13
2023-04-20T09:51:18.263Z,19.19
2023-04-20T09:54:20.873Z,19.13
2023-04-20T09:57:25.536Z,19.13
2023-04-20T10:00:27.816Z,19.13
2023-04-20T10:03:30.195Z,19.13
2023-04-20T10:06:34.877Z,19.06
2023-04-20T10:09:37.900Z,19.00
2023-04-20T10:12:49.890Z,18.94
2023-04-20T10:15:52.010Z,18.94
2023-04-20T10:19:05.243Z,18.88
2023-04-20T10:22:10.359Z,18.88
2023-04-20T10:25:19.285Z,18.88
2023-04-20T10:28:21.881Z,18.94
2023-04-20T10:31:34.848Z,18.88
2023-04-20T10:34:37.402Z,18.88
2023-04-20T10:37:50.687Z,18.81
2023-04-20T10:40:52.722Z,18.88
2023-04-20T10:43:55.014Z,18.88
2023-04-20T10:46:57.497Z,18.81
2023-04-20T10:50:12.605Z,18.81
2023-04-20T10:53:23.622Z,18.81
2023-04-20T10:56:26.766Z,18.81
2023-04-20T10:59:29.144Z,18.75
2023-04-20T11:02:31.452Z,18.81
2023-04-20T11:05:33.667Z,18.88
2023-04-20T11:08:39.443Z,18.94
2023-04-20T11:11:41.439Z,19.00
2023-04-20T11:14:58.718Z,18.94
2023-04-20T11:18:11.951Z,19.00
2023-04-20T11:21:14.226Z,18.94
2023-04-20T11:24:23.590Z,19.00
2023-04-20T11:27:25.666Z,19.00
2023-04-20T11:30:41.748Z,19.13
2023-04-20T11:33:43.916Z,19.13
2023-04-20T11:36:46.417Z,19.13
2023-04-20T11:39:58.677Z,19.13
2023-04-20T11:43:00.748Z,19.13
2023-04-20T11:46:03.198Z,19.06
2023-04-20T11:49:05.777Z,19.06
2023-04-20T11:52:07.807Z,19.13
2023-04-20T11:55:11.240Z,19.13
2023-04-20T11:58:13.294Z,19.31
2023-04-20T12:01:16.960Z,19.31
2023-04-20T12:04:19.152Z,19.25
2023-04-20T12:07:22.777Z,19.13
2023-04-20T12:10:25.245Z,19.13
2023-04-20T12:13:27.536Z,19.06
2023-04-20T12:16:30.082Z,19.19
2023-04-20T12:19:32.389Z,18.75
2023-04-20T12:22:34.830Z,18.88
2023-04-20T12:25:36.957Z,18.81
2023-04-20T12:28:39.473Z,18.88
2023-04-20T12:31:41.608Z,18.81
2023-04-20T12:34:43.688Z,18.88
2023-04-20T12:37:45.698Z,18.69
2023-04-20T12:40:47.771Z,18.75
2023-04-20T12:43:50.768Z,18.75
2023-04-20T12:46:52.965Z,18.75
2023-04-20T12:49:55.175Z,18.69
2023-04-20T12:52:58.492Z,18.69
2023-04-20T12:56:01.501Z,18.81
2023-04-20T12:59:03.763Z,18.81
2023-04-20T13:02:06.288Z,18.81
2023-04-20T13:05:08.829Z,18.81
2023-04-20T13:08:11.260Z,18.88
2023-04-20T13:11:15.540Z,18.88
2023-04-20T13:14:19.122Z,18.88
2023-04-20T13:17:21.282Z,18.88
2023-04-20T13:20:29.142Z,18.88
2023-04-20T13:23:31.169Z,18.88
2023-04-20T13:26:33.594Z,18.94
2023-04-20T13:29:35.758Z,18.88
2023-04-20T13:32:38.919Z,18.94
2023-04-20T13:35:41.318Z,18.88
2023-04-20T13:38:43.349Z,18.88
2023-04-20T13:41:45.548Z,18.88
2023-04-20T13:44:47.586Z,18.81
2023-04-20T13:47:50.111Z,18.88
2023-04-20T13:50:53.999Z,18.94
2023-04-20T13:53:56.108Z,19.00
2023-04-20T13:56:58.305Z,19.00
2023-04-20T14:00:01.245Z,19.00
2023-04-20T14:03:05.385Z,19.00
2023-04-20T14:06:07.790Z,19.06
2023-04-20T14:09:09.874Z,19.06
2023-04-20T14:12:12.620Z,19.06
2023-04-20T14:15:14.769Z,19.19
2023-04-20T14:18:16.977Z,19.44
2023-04-20T14:21:19.053Z,19.50
2023-04-20T14:24:21.086Z,19.44
2023-04-20T14:27:23.132Z,19.31
2023-04-20T14:30:25.690Z,19.31
2023-04-20T14:33:28.188Z,19.19
2023-04-20T14:36:30.831Z,19.31
2023-04-20T14:39:32.857Z,19.38
2023-04-20T14:42:34.915Z,19.31
2023-04-20T14:45:37.073Z,19.19
2023-04-20T14:48:39.116Z,19.06
2023-04-20T14:51:41.155Z,19.00
2023-04-20T14:54:43.189Z,19.00
2023-04-20T14:57:45.288Z,19.00
2023-04-20T15:00:48.833Z,19.00
2023-04-20T15:03:51.149Z,18.94
2023-04-20T15:06:53.563Z,18.94
2023-04-20T15:09:55.658Z,19.00
2023-04-20T15:12:57.706Z,18.94
2023-04-20T15:15:59.933Z,18.88
2023-04-20T15:19:02.093Z,18.94
2023-04-20T15:22:04.161Z,18.88
2023-04-20T15:25:06.680Z,18.88
2023-04-20T15:28:08.742Z,18.88
2023-04-20T15:31:10.751Z,18.81
2023-04-20T15:34:15.193Z,18.75
2023-04-20T15:37:17.433Z,18.81
2023-04-20T15:40:21.360Z,18.75
2023-04-20T15:43:23.424Z,18.75
2023-04-20T15:46:26.528Z,18.69
2023-04-20T15:49:28.868Z,18.69
2023-04-20T15:52:32.534Z,18.63
2023-04-20T15:55:38.729Z,18.63
2023-04-20T15:58:41.759Z,18.63
2023-04-20T16:01:44.084Z,18.56
2023-04-20T16:04:46.431Z,18.63
2023-04-20T16:07:48.672Z,18.56
2023-04-20T16:10:51.628Z,18.56
2023-04-20T16:13:56.699Z,18.63
2023-04-20T16:17:02.611Z,18.63
2023-04-20T16:20:09.160Z,18.63
2023-04-20T16:23:11.248Z,18.63
2023-04-20T16:26:13.297Z,18.63
2023-04-20T16:29:15.959Z,18.69
2023-04-20T16:32:18.002Z,18.75
2023-04-20T16:35:20.130Z,18.75
2023-04-20T16:38:22.575Z,18.75
2023-04-20T16:41:25.790Z,18.75
2023-04-20T16:44:28.059Z,18.69
2023-04-20T16:47:30.224Z,18.63
2023-04-20T16:50:32.548Z,18.63
2023-04-20T16:53:34.925Z,18.63
2023-04-20T16:56:37.614Z,18.63
2023-04-20T16:59:39.654Z,18.56
2023-04-20T17:02:41.839Z,18.50
2023-04-20T17:05:44.615Z,18.44
2023-04-20T17:08:47.320Z,18.50
2023-04-20T17:11:49.330Z,18.38
2023-04-20T17:14:51.361Z,18.38
2023-04-20T17:17:53.433Z,18.38
2023-04-20T17:20:58.344Z,18.38
2023-04-20T17:24:00.463Z,18.38
2023-04-20T17:27:02.552Z,18.31
2023-04-20T17:30:05.894Z,18.31
2023-04-20T17:33:12.407Z,18.25
2023-04-20T17:36:14.437Z,18.25
2023-04-20T17:39:16.490Z,18.25
2023-04-20T17:42:18.552Z,18.25
2023-04-20T17:45:20.838Z,18.25
2023-04-20T17:48:22.915Z,18.19
2023-04-20T17:51:24.978Z,18.19
2023-04-20T17:54:27.135Z,18.19
2023-04-20T17:57:30.077Z,18.19
2023-04-20T18:00:32.215Z,18.13
2023-04-20T18:03:34.507Z,18.13
2023-04-20T18:06:36.691Z,18.13
2023-04-20T18:09:39.683Z,18.06
2023-04-20T18:12:42.823Z,18.13
2023-04-20T18:15:45.031Z,18.06
2023-04-20T18:18:47.154Z,18.06
2023-04-20T18:21:49.192Z,18.06
2023-04-20T18:24:51.873Z,18.00
2023-04-20T18:27:53.959Z,18.06
2023-04-20T18:30:57.750Z,18.00
2023-04-20T18:34:00.987Z,18.00
2023-04-20T18:37:03.011Z,17.94
2023-04-20T18:40:07.275Z,17.94
2023-04-20T18:43:09.507Z,17.94
2023-04-20T18:46:11.879Z,18.00
2023-04-20T18:49:14.079Z,17.94
2023-04-20T18:52:16.174Z,17.94
2023-04-20T18:55:18.232Z,17.94
2023-04-20T18:58:20.392Z,17.94
2023-04-20T19:01:22.469Z,17.94
2023-04-20T19:04:24.643Z,17.88
2023-04-20T19:07:26.811Z,17.88
2023-04-20T19:10:29.081Z,17.88
2023-04-20T19:13:31.191Z,17.88
2023-04-20T19:16:33.744Z,17.88
2023-04-20T19:19:35.850Z,17.88
2023-04-20T19:22:37.889Z,17.88
2023-04-20T19:25:39.899Z,17.81
2023-04-20T19:28:41.977Z,17.81
2023-04-20T19:31:44.443Z,17.81
2023-04-20T19:34:46.756Z,17.81
2023-04-20T19:37:48.812Z,17.75
2023-04-20T19:40:52.131Z,17.75
2023-04-20T19:43:54.140Z,17.75
2023-04-20T19:46:56.224Z,17.75
2023-04-20T19:49:58.242Z,17.69
2023-04-20T19:53:00.576Z,17.69
2023-04-20T19:56:05.604Z,17.69
2023-04-20T19:59:08.649Z,17.69
2023-04-20T20:02:10.742Z,17.69
2023-04-20T20:05:12.872Z,17.69
2023-04-20T20:08:15.051Z,17.69
2023-04-20T20:11:17.087Z,17.69
2023-04-20T20:14:19.644Z,17.69
2023-04-20T20:17:21.948Z,17.63
2023-04-20T20:20:24.580Z,17.63
2023-04-20T20:23:26.720Z,17.63
2023-04-20T20:26:28.863Z,17.56
2023-04-20T20:29:31.511Z,17.63
2023-04-20T20:32:33.618Z,17.63
2023-04-20T20:35:37.617Z,17.56
2023-04-20T20:38:40.654Z,17.63
2023-04-20T20:41:42.793Z,17.50
2023-04-20T20:44:44.905Z,17.56
2023-04-20T20:47:47.070Z,17.50
2023-04-20T20:50:49.148Z,17.50
2023-04-20T20:53:51.911Z,17.50
2023-04-20T20:56:53.949Z,17.56
2023-04-20T20:59:56.044Z,17.50
2023-04-20T21:02:58.940Z,17.56
2023-04-20T21:06:01.208Z,17.50
2023-04-20T21:09:04.116Z,17.50
2023-04-20T21:12:06.420Z,17.50
2023-04-20T21:15:10.090Z,17.44
2023-04-20T21:18:12.176Z,17.50
2023-04-20T21:21:15.104Z,17.44
2023-04-20T21:24:17.244Z,17.44
2023-04-20T21:27:19.324Z,17.44
2023-04-20T21:30:21.436Z,17.44
2023-04-20T21:33:23.514Z,17.38
2023-04-20T21:36:26.131Z,17.44
2023-04-20T21:39:28.183Z,17.38
2023-04-20T21:42:30.491Z,17.38
2023-04-20T21:45:32.559Z,17.38
2023-04-20T21:48:34.596Z,17.38
2023-04-20T21:51:36.628Z,17.38
2023-04-20T21:54:40.722Z,17.31
2023-04-20T21:57:42.765Z,17.31
2023-04-20T22:00:44.823Z,17.31
2023-04-20T22:03:47.492Z,17.25
2023-04-20T22:06:49.788Z,17.31
2023-04-20T22:09:51.916Z,17.25
2023-04-20T22:12:54.012Z,17.25
2023-04-20T22:15:56.212Z,17.25
2023-04-20T22:18:58.344Z,17.25
2023-04-20T22:22:00.604Z,17.25
2023-04-20T22:25:04.562Z,17.25
2023-04-20T22:28:06.786Z,17.19
2023-04-20T22:31:08.820Z,17.25
2023-04-20T22:34:10.821Z,17.19
2023-04-20T22:37:12.858Z,17.19
2023-04-20T22:40:14.917Z,17.19
2023-04-20T22:43:17.044Z,17.19
2023-04-20T22:46:19.102Z,17.19
2023-04-20T22:49:21.143Z,17.19
2023-04-20T22:52:23.269Z,17.19
2023-04-20T22:55:25.601Z,17.13
2023-04-20T22:58:27.639Z,17.13
2023-04-20T23:01:29.763Z,17.13
2023-04-20T23:04:32.373Z,17.06
2023-04-20T23:07:34.470Z,17.06
2023-04-20T23:10:36.467Z,17.06
2023-04-20T23:13:38.488Z,17.06
2023-04-20T23:16:41.019Z,17.06
2023-04-20T23:19:43.195Z,17.06
2023-04-20T23:22:45.380Z,17.00
2023-04-20T23:25:47.391Z,17.00
2023-04-20T23:28:53.416Z,17.00
2023-04-20T23:31:55.547Z,17.00
2023-04-20T23:34:57.615Z,17.00
2023-04-20T23:37:59.758Z,17.00
2023-04-20T23:41:01.878Z,16.94
2023-04-20T23:44:04.030Z,16.94
2023-04-20T23:47:06.106Z,17.00
2023-04-20T23:50:08.783Z,16.94
2023-04-20T23:53:10.838Z,16.94
2023-04-20T23:56:13.018Z,16.94
2023-04-20T23:59:15.106Z,16.94
